KHUM/HUM METAR and TAF weather

Enter ICAO airport designator
Station Type Date Time Source
KHUM METAR 2021/09/23 23:50 UTC NOAA

KHUM 232350Z 07004KT 7SM CLR 23/14 A3002


Station Type Date Time Source
KHUM Decoded METAR 2021/09/23 23:50 UTC NOAA

Houma-Terrebonne, LA, United States (KHUM) 29-34N 090-40W
Sep 23, 2021 - 07:50 PM EDT / 2021.09.23 2350 UTC
Wind: from the ENE (070 degrees) at 5 MPH (4 KT):0
Visibility: 7 mile(s):0
Sky conditions: clear
Temperature: 73 F (23 C)
Dew Point: 57 F (14 C)
Relative Humidity: 56%
Pressure (altimeter): 30.02 in. Hg (1016 hPa)
ob: KHUM 232350Z 07004KT 7SM CLR 23/14 A3002
cycle: 0

Station Type Date Time Source
KHUM TAF 2021/09/23 18:22 UTC NOAA

TAF KHUM 231720Z 2318/2418 04010KT P6SM SKC
FM240000 VRB03KT P6SM SKC

Example: see airport list